Time;durP1;ratioP1;P1;durP2;ratioP2;P2;SDS_P1;SDS_P2;PMS_P1;PMS_P2;Temp;Humidity;BMP_temperature;BMP_pressure;BME280_temperature;BME280_humidity;BME280_pressure;Samples;Min_cycle;Max_cycle;Signal;HPM_P1;HPM_P2
2024/03/04 00:02:27;;;;;;;25.27;19.30;;;13.20;99.90;;;;;;4938249;28;20439;-80
2024/03/04 00:04:55;;;;;;;24.40;20.60;;;13.20;99.90;;;;;;4922145;29;21102;-79
2024/03/04 00:07:24;;;;;;;25.50;20.50;;;13.20;99.90;;;;;;4956512;28;20451;-79
2024/03/04 00:09:51;;;;;;;28.43;21.07;;;13.20;99.90;;;;;;4953224;28;20812;-79
2024/03/04 00:12:17;;;;;;;29.73;22.37;;;13.20;99.90;;;;;;4940918;28;20478;-79
2024/03/04 00:14:45;;;;;;;29.93;20.10;;;13.20;99.90;;;;;;4954132;28;20444;-79
2024/03/04 00:17:11;;;;;;;24.07;19.73;;;13.20;99.90;;;;;;4922037;29;20505;-79
2024/03/04 00:19:37;;;;;;;23.27;18.93;;;13.20;99.90;;;;;;4910252;28;20461;-79
2024/03/04 00:22:04;;;;;;;32.13;22.00;;;13.20;99.90;;;;;;4938381;28;20569;-80
2024/03/04 00:24:32;;;;;;;26.20;21.40;;;13.20;99.90;;;;;;4923096;29;21258;-79
2024/03/04 00:27:00;;;;;;;32.00;23.47;;;13.20;99.90;;;;;;4934729;28;20439;-80
2024/03/04 00:29:28;;;;;;;27.17;20.70;;;13.10;99.90;;;;;;4952507;28;20975;-80
2024/03/04 00:31:57;;;;;;;27.47;20.23;;;13.10;99.90;;;;;;4955555;28;20422;-80
2024/03/04 00:34:27;;;;;;;26.03;20.27;;;13.10;99.90;;;;;;4925024;29;20785;-79
2024/03/04 00:36:57;;;;;;;27.93;20.10;;;13.40;99.90;;;;;;4938645;28;20435;-79
2024/03/04 00:39:26;;;;;;;27.03;21.57;;;13.10;99.90;;;;;;4938699;28;20461;-80
2024/03/04 00:41:51;;;;;;;35.63;22.00;;;13.10;99.90;;;;;;4953973;28;20439;-79
2024/03/04 00:44:18;;;;;;;27.90;20.43;;;13.10;99.90;;;;;;4920886;29;21218;-80
2024/03/04 00:46:45;;;;;;;28.40;20.80;;;13.10;99.90;;;;;;4954091;28;20654;-79
2024/03/04 00:49:11;;;;;;;27.23;21.53;;;13.10;99.90;;;;;;4954019;28;20454;-80
2024/03/04 00:51:37;;;;;;;36.30;21.17;;;13.10;99.90;;;;;;4942492;28;20422;-79
2024/03/04 00:54:05;;;;;;;24.50;18.80;;;13.10;99.90;;;;;;4957153;28;20291;-79
2024/03/04 00:56:31;;;;;;;29.03;21.13;;;13.10;99.90;;;;;;4955600;28;21049;-79
2024/03/04 00:58:58;;;;;;;28.17;21.00;;;13.10;99.90;;;;;;4941971;28;20330;-79
2024/03/04 01:01:26;;;;;;;28.10;21.27;;;13.10;99.90;;;;;;4965171;28;21079;-78
2024/03/04 01:03:54;;;;;;;26.87;20.70;;;13.00;99.90;;;;;;4941058;29;20467;-79
2024/03/04 01:06:27;;;;;;;27.87;19.13;;;13.00;99.90;;;;;;4957516;28;20424;-79
2024/03/04 01:08:54;;;;;;;29.90;21.47;;;13.00;99.90;;;;;;4943457;28;20446;-79
2024/03/04 01:11:22;;;;;;;24.67;19.27;;;13.00;99.90;;;;;;4958706;28;20466;-79
2024/03/04 01:13:48;;;;;;;26.77;20.90;;;13.00;99.90;;;;;;4927707;28;20470;-79
2024/03/04 01:16:14;;;;;;;26.17;20.03;;;13.00;99.90;;;;;;4931185;28;20843;-79
2024/03/04 01:18:45;;;;;;;28.60;20.63;;;13.10;99.90;;;;;;4958509;28;20448;-79
2024/03/04 01:21:11;;;;;;;25.20;19.60;;;13.00;99.90;;;;;;4928083;29;20452;-79
2024/03/04 01:23:43;;;;;;;25.80;19.23;;;13.00;99.90;;;;;;4945105;28;20440;-79
2024/03/04 01:26:09;;;;;;;27.80;21.07;;;13.00;99.90;;;;;;4959035;28;20444;-78
2024/03/04 01:28:35;;;;;;;29.33;20.37;;;13.00;99.90;;;;;;4962828;28;20532;-79
2024/03/04 01:31:04;;;;;;;27.90;20.27;;;13.00;99.90;;;;;;4958893;28;20423;-80
2024/03/04 01:33:29;;;;;;;29.20;21.60;;;13.00;99.90;;;;;;4960725;28;20242;-79
2024/03/04 01:36:00;;;;;;;28.20;20.90;;;13.00;99.90;;;;;;4958682;28;20439;-79
2024/03/04 01:38:27;;;;;;;26.97;20.77;;;13.00;99.90;;;;;;4960714;28;20446;-79
2024/03/04 01:40:55;;;;;;;33.37;20.30;;;12.90;99.90;;;;;;4941495;28;20446;-79
2024/03/04 01:43:27;;;;;;;25.60;19.83;;;12.90;99.90;;;;;;4942061;28;20435;-79
2024/03/04 01:45:55;;;;;;;27.17;21.03;;;13.00;99.90;;;;;;4922079;29;20538;-79
2024/03/04 01:48:22;;;;;;;26.13;18.70;;;12.90;99.90;;;;;;4939053;29;20882;-79
2024/03/04 01:50:50;;;;;;;26.03;20.67;;;13.00;99.90;;;;;;4934716;28;20443;-79
2024/03/04 01:53:19;;;;;;;28.10;20.37;;;12.90;99.90;;;;;;4921258;29;20483;-79
2024/03/04 01:55:48;;;;;;;24.03;19.03;;;12.90;99.90;;;;;;4943321;28;20480;-79
2024/03/04 01:58:18;;;;;;;24.97;19.30;;;12.90;99.90;;;;;;4937529;28;20422;-78
2024/03/04 02:00:48;;;;;;;26.97;19.73;;;12.90;99.90;;;;;;4943494;28;20439;-79
2024/03/04 02:03:17;;;;;;;26.23;18.87;;;12.90;99.90;;;;;;4942044;28;20510;-79
2024/03/04 02:05:48;;;;;;;29.80;19.20;;;12.90;99.90;;;;;;4963515;28;20822;-79
2024/03/04 02:08:19;;;;;;;27.97;19.50;;;12.90;99.90;;;;;;4954690;28;20427;-79
2024/03/04 02:10:48;;;;;;;26.57;17.67;;;12.90;99.90;;;;;;4960869;28;20904;-79
2024/03/04 02:13:14;;;;;;;26.00;18.80;;;12.90;99.90;;;;;;4938637;28;20506;-78
2024/03/04 02:15:41;;;;;;;22.47;17.47;;;12.80;99.90;;;;;;4958892;28;20446;-78
2024/03/04 02:18:10;;;;;;;21.30;17.40;;;12.80;99.90;;;;;;4941034;29;20436;-79
2024/03/04 02:20:41;;;;;;;22.27;17.13;;;12.80;99.90;;;;;;4957264;28;20447;-79
2024/03/04 02:23:10;;;;;;;23.87;17.50;;;12.80;99.90;;;;;;4939460;28;20538;-78
2024/03/04 02:25:36;;;;;;;23.93;16.50;;;12.80;99.90;;;;;;4923182;29;20546;-79
2024/03/04 02:28:08;;;;;;;25.40;17.70;;;12.80;99.90;;;;;;4940594;28;20466;-78
2024/03/04 02:30:34;;;;;;;21.33;16.37;;;12.80;99.90;;;;;;4938036;28;20434;-79
2024/03/04 02:33:02;;;;;;;22.40;15.70;;;12.70;99.90;;;;;;4923047;28;20505;-79
2024/03/04 02:35:33;;;;;;;20.10;16.47;;;12.80;99.90;;;;;;4959092;28;20462;-79
2024/03/04 02:38:02;;;;;;;22.43;15.20;;;12.80;99.90;;;;;;4942762;28;21049;-79
2024/03/04 02:40:30;;;;;;;20.90;15.57;;;12.80;99.90;;;;;;4939459;28;20958;-79
2024/03/04 02:42:59;;;;;;;21.63;16.23;;;12.80;99.90;;;;;;4954548;28;20463;-79
2024/03/04 02:45:25;;;;;;;21.93;14.87;;;12.80;99.90;;;;;;4941873;28;20449;-79
2024/03/04 02:47:51;;;;;;;20.73;15.10;;;12.90;99.90;;;;;;4954182;28;20782;-79
2024/03/04 02:50:17;;;;;;;16.43;13.57;;;12.70;99.90;;;;;;4953039;28;20468;-79
2024/03/04 02:52:44;;;;;;;20.83;14.30;;;12.80;99.90;;;;;;4957681;28;20470;-79
2024/03/04 02:55:12;;;;;;;18.20;14.07;;;12.70;99.90;;;;;;4950577;28;20283;-79
2024/03/04 02:57:39;;;;;;;21.17;14.93;;;12.70;99.90;;;;;;4936480;29;21057;-79
2024/03/04 03:00:08;;;;;;;18.93;14.77;;;12.70;99.90;;;;;;4955191;28;20763;-79
2024/03/04 03:02:39;;;;;;;18.40;13.43;;;12.70;99.90;;;;;;4943167;28;20426;-78
2024/03/04 03:05:10;;;;;;;18.87;13.97;;;12.70;99.90;;;;;;4936702;28;20470;-79
2024/03/04 03:08:01;;;;;;;21.83;13.73;;;12.70;99.90;;;;;;4952480;28;20522;-79
2024/03/04 03:10:28;;;;;;;21.73;13.77;;;12.70;99.90;;;;;;4954312;28;20807;-79
2024/03/04 03:12:53;;;;;;;14.47;12.07;;;12.70;99.90;;;;;;4950945;28;20470;-79
2024/03/04 03:15:24;;;;;;;15.23;12.10;;;12.70;99.90;;;;;;4958366;28;20428;-79
2024/03/04 03:17:50;;;;;;;19.07;13.37;;;12.70;99.90;;;;;;4938505;28;20450;-79
2024/03/04 03:20:19;;;;;;;14.10;11.00;;;12.70;99.90;;;;;;4954437;28;20442;-78
2024/03/04 03:22:48;;;;;;;18.33;12.93;;;12.70;99.90;;;;;;4938598;28;20439;-79
2024/03/04 03:25:16;;;;;;;17.77;12.63;;;12.60;99.90;;;;;;4944884;28;20544;-79
2024/03/04 03:27:45;;;;;;;16.10;12.57;;;12.70;99.90;;;;;;4954224;28;20427;-78
2024/03/04 03:30:14;;;;;;;16.30;11.83;;;12.70;99.90;;;;;;4937061;28;20907;-79
2024/03/04 03:32:42;;;;;;;15.20;11.90;;;12.60;99.90;;;;;;4956140;28;20478;-80
2024/03/04 03:35:08;;;;;;;14.07;11.57;;;12.70;99.90;;;;;;4948877;28;20422;-80
2024/03/04 03:37:36;;;;;;;13.00;11.00;;;12.60;99.90;;;;;;4933807;29;20572;-79
2024/03/04 03:40:03;;;;;;;13.53;10.43;;;12.90;99.90;;;;;;4943168;29;20467;-79
2024/03/04 03:42:32;;;;;;;14.27;10.93;;;12.60;99.90;;;;;;4945690;28;20442;-78
2024/03/04 03:44:58;;;;;;;12.60;10.47;;;12.60;99.90;;;;;;4934940;28;20427;-79
2024/03/04 03:47:29;;;;;;;13.73;10.40;;;12.60;99.90;;;;;;4925761;29;20479;-79
2024/03/04 03:50:03;;;;;;;15.20;9.60;;;12.90;99.90;;;;;;4968309;28;20506;-79
2024/03/04 03:52:36;;;;;;;12.63;9.40;;;12.70;99.90;;;;;;4953174;28;20475;-79
2024/03/04 03:55:02;;;;;;;12.93;9.47;;;12.60;99.90;;;;;;4928211;29;20446;-80
2024/03/04 03:57:28;;;;;;;12.63;9.63;;;12.60;99.90;;;;;;4962160;28;20427;-79
2024/03/04 03:59:56;;;;;;;11.30;9.13;;;12.70;99.90;;;;;;4960518;28;20541;-79
2024/03/04 04:02:25;;;;;;;11.67;9.30;;;12.60;99.90;;;;;;4953891;28;20854;-84
2024/03/04 04:05:18;;;;;;;10.90;8.67;;;12.60;99.90;;;;;;4943031;28;20430;-84
2024/03/04 04:07:49;;;;;;;11.23;9.10;;;12.60;99.90;;;;;;4960397;28;20525;-84
2024/03/04 04:10:14;;;;;;;12.57;9.30;;;12.60;99.90;;;;;;4925638;29;20464;-83
2024/03/04 04:12:41;;;;;;;11.17;8.57;;;12.60;99.90;;;;;;4945647;28;20466;-82
2024/03/04 04:15:07;;;;;;;9.97;8.43;;;12.60;99.90;;;;;;4923408;28;20450;-83
2024/03/04 04:17:33;;;;;;;12.17;8.47;;;12.60;99.90;;;;;;4939801;28;20443;-84
2024/03/04 04:20:06;;;;;;;10.83;8.70;;;12.60;99.90;;;;;;4941556;29;20424;-84
2024/03/04 04:22:33;;;;;;;11.23;8.40;;;12.60;99.90;;;;;;4911760;28;20439;-84
2024/03/04 04:25:23;;;;;;;11.20;8.13;;;12.60;99.90;;;;;;4945422;29;20467;-83
2024/03/04 04:27:48;;;;;;;8.50;7.43;;;12.50;99.90;;;;;;4936886;29;20431;-85
2024/03/04 04:30:17;;;;;;;8.17;7.33;;;12.50;99.90;;;;;;4944760;29;20447;-84
2024/03/04 04:32:43;;;;;;;9.93;7.50;;;12.50;99.90;;;;;;4929714;28;20466;-84
2024/03/04 04:35:09;;;;;;;11.00;7.37;;;12.50;99.90;;;;;;4936341;29;20438;-84
2024/03/04 04:37:36;;;;;;;10.80;8.20;;;12.50;99.90;;;;;;4931555;28;20555;-83
2024/03/04 04:40:08;;;;;;;11.13;7.13;;;12.50;99.90;;;;;;4950564;28;20422;-83
2024/03/04 04:42:34;;;;;;;9.07;7.90;;;12.50;99.90;;;;;;4942625;28;20434;-84
2024/03/04 04:45:00;;;;;;;9.60;7.53;;;12.50;99.90;;;;;;4929709;28;20526;-84
2024/03/04 04:47:26;;;;;;;9.87;7.40;;;12.50;99.90;;;;;;4924074;29;20453;-85
2024/03/04 04:49:55;;;;;;;8.43;7.37;;;12.50;99.90;;;;;;4942824;28;20219;-83
2024/03/04 04:52:24;;;;;;;11.17;8.17;;;12.50;99.90;;;;;;4948031;28;20466;-85
2024/03/04 04:54:52;;;;;;;8.10;7.30;;;12.50;99.90;;;;;;4915320;28;20541;-84
2024/03/04 04:57:27;;;;;;;8.30;7.50;;;12.50;99.90;;;;;;4944740;29;20509;-83
2024/03/04 04:59:53;;;;;;;8.33;7.47;;;12.50;99.90;;;;;;4929204;29;21147;-85
2024/03/04 05:02:19;;;;;;;8.30;6.87;;;12.50;99.90;;;;;;4934049;28;20489;-85
2024/03/04 05:04:45;;;;;;;9.57;7.70;;;12.50;99.90;;;;;;4943704;28;20435;-83
2024/03/04 05:07:13;;;;;;;8.97;7.50;;;12.50;99.90;;;;;;4935449;28;20191;-86
2024/03/04 05:09:44;;;;;;;8.10;6.67;;;12.50;99.90;;;;;;4948156;28;20518;-84
2024/03/04 05:12:15;;;;;;;8.57;7.67;;;12.50;99.90;;;;;;4941546;28;20440;-85
2024/03/04 05:14:47;;;;;;;8.30;7.20;;;12.50;99.90;;;;;;4943500;29;20431;-84
2024/03/04 05:17:13;;;;;;;10.67;7.40;;;12.50;99.90;;;;;;4929134;28;20486;-85
2024/03/04 05:19:39;;;;;;;8.37;7.20;;;12.50;99.90;;;;;;4924637;28;20463;-84
2024/03/04 05:22:09;;;;;;;10.30;7.53;;;12.40;99.90;;;;;;4946428;28;20435;-83
2024/03/04 05:24:35;;;;;;;12.53;6.93;;;12.50;99.90;;;;;;4937624;29;20416;-85
2024/03/04 05:27:03;;;;;;;10.27;7.47;;;12.40;99.90;;;;;;4946286;28;20510;-85
2024/03/04 05:29:29;;;;;;;11.40;7.93;;;12.40;99.90;;;;;;4930269;29;20442;-85
2024/03/04 05:31:57;;;;;;;10.83;7.70;;;12.40;99.90;;;;;;4947290;29;20423;-84
2024/03/04 05:34:26;;;;;;;8.13;6.70;;;12.50;99.90;;;;;;4956041;28;20478;-84
2024/03/04 05:36:55;;;;;;;9.53;6.20;;;12.40;99.90;;;;;;4948798;28;21206;-85
2024/03/04 05:39:21;;;;;;;8.47;6.83;;;12.40;99.90;;;;;;4961551;28;20433;-85
2024/03/04 05:41:48;;;;;;;8.43;6.97;;;12.40;99.90;;;;;;4956960;28;20761;-84
2024/03/04 05:44:17;;;;;;;11.00;7.60;;;12.40;99.90;;;;;;4947519;29;20422;-83
2024/03/04 05:46:44;;;;;;;8.30;6.50;;;12.40;99.90;;;;;;4948723;28;20430;-84
2024/03/04 05:49:11;;;;;;;9.30;7.30;;;12.40;99.90;;;;;;4912231;28;20456;-84
2024/03/04 05:51:43;;;;;;;7.57;6.80;;;12.40;99.90;;;;;;4926328;29;20526;-83
2024/03/04 05:54:12;;;;;;;9.30;7.30;;;12.40;99.90;;;;;;4937581;28;20483;-85
2024/03/04 05:56:43;;;;;;;9.57;7.17;;;12.40;99.90;;;;;;4942072;29;20526;-84
2024/03/04 05:59:14;;;;;;;9.70;6.60;;;12.40;99.90;;;;;;4926049;29;21168;-86
2024/03/04 06:01:43;;;;;;;8.47;6.20;;;12.40;99.90;;;;;;4944340;29;21031;-83
2024/03/04 06:04:13;;;;;;;9.97;6.43;;;12.40;99.90;;;;;;4927278;28;20478;-83
2024/03/04 06:06:47;;;;;;;11.20;6.23;;;12.40;99.90;;;;;;4959683;28;20526;-84
2024/03/04 06:09:40;;;;;;;6.90;6.20;;;12.30;99.90;;;;;;4925447;28;20532;-86
2024/03/04 06:12:10;;;;;;;8.17;6.37;;;12.40;99.90;;;;;;4900825;28;20450;-84
2024/03/04 06:14:35;;;;;;;6.20;5.60;;;12.40;99.90;;;;;;4928032;28;20474;-83
2024/03/04 06:17:04;;;;;;;9.73;7.60;;;12.40;99.90;;;;;;4904207;29;20772;-86
2024/03/04 06:19:33;;;;;;;8.57;6.30;;;12.40;99.90;;;;;;4928345;29;20555;-85
2024/03/04 06:22:02;;;;;;;7.40;6.07;;;12.30;99.90;;;;;;4941484;29;20435;-85
2024/03/04 06:24:36;;;;;;;7.47;6.77;;;12.40;99.90;;;;;;4928991;29;20450;-84
2024/03/04 06:27:06;;;;;;;11.70;7.13;;;12.30;99.90;;;;;;4939277;28;20502;-84
2024/03/04 06:29:33;;;;;;;9.00;6.67;;;12.30;99.90;;;;;;4928625;28;20970;-84
2024/03/04 06:32:00;;;;;;;7.80;6.73;;;12.30;99.90;;;;;;4936940;28;20426;-84
2024/03/04 06:34:26;;;;;;;10.33;6.27;;;12.30;99.90;;;;;;4920466;28;20424;-85
2024/03/04 06:36:55;;;;;;;10.53;6.60;;;12.30;99.90;;;;;;4925018;28;20462;-84
2024/03/04 06:39:21;;;;;;;11.93;7.50;;;12.40;99.90;;;;;;4939415;28;21114;-84
2024/03/04 06:41:55;;;;;;;10.37;6.70;;;12.30;99.90;;;;;;4954260;28;20418;-84
2024/03/04 06:44:23;;;;;;;7.77;6.43;;;12.30;99.90;;;;;;4948248;28;20836;-85
2024/03/04 06:46:58;;;;;;;12.63;6.60;;;12.30;99.90;;;;;;4940969;28;20484;-84
2024/03/04 06:49:24;;;;;;;8.53;6.20;;;12.30;99.90;;;;;;4930665;28;20438;-84
2024/03/04 06:51:51;;;;;;;9.43;6.90;;;12.30;99.90;;;;;;4923423;28;20459;-84
2024/03/04 06:54:16;;;;;;;10.50;6.97;;;12.40;99.90;;;;;;4918381;29;20490;-85
2024/03/04 06:56:42;;;;;;;10.20;6.07;;;12.30;99.90;;;;;;4923666;28;20431;-84
2024/03/04 06:59:13;;;;;;;7.93;6.20;;;12.30;99.90;;;;;;4931446;28;20471;-84
2024/03/04 07:01:39;;;;;;;13.83;6.97;;;12.30;99.90;;;;;;4930585;29;20527;-85
2024/03/04 07:04:08;;;;;;;7.70;6.80;;;12.30;99.90;;;;;;4939263;28;20434;-84
2024/03/04 07:06:34;;;;;;;8.80;6.27;;;12.30;99.90;;;;;;4921636;28;20286;-82
2024/03/04 07:09:00;;;;;;;9.03;7.33;;;12.30;99.90;;;;;;4921125;28;21281;-85
2024/03/04 07:11:26;;;;;;;8.73;6.60;;;12.30;99.90;;;;;;4923199;28;20455;-85
2024/03/04 07:13:57;;;;;;;8.17;6.47;;;12.30;99.90;;;;;;4929425;28;20569;-87
2024/03/04 07:16:23;;;;;;;9.30;6.87;;;12.30;99.90;;;;;;4924588;29;21185;-85
2024/03/04 07:18:50;;;;;;;9.00;6.97;;;12.30;99.90;;;;;;4942987;28;20474;-85
2024/03/04 07:21:17;;;;;;;8.40;6.97;;;12.30;99.90;;;;;;4928448;28;20184;-86
2024/03/04 07:23:47;;;;;;;12.93;7.03;;;12.30;99.90;;;;;;4928057;29;20485;-86
2024/03/04 07:26:19;;;;;;;8.73;7.13;;;12.30;99.90;;;;;;4912570;29;21236;-86
2024/03/04 07:28:47;;;;;;;10.40;7.67;;;12.20;99.90;;;;;;4940644;29;20455;-85
2024/03/04 07:31:13;;;;;;;9.47;7.80;;;12.20;99.90;;;;;;4943789;29;20465;-84
2024/03/04 07:33:42;;;;;;;10.00;7.37;;;12.30;99.90;;;;;;4934790;29;20936;-86
2024/03/04 07:36:11;;;;;;;8.80;7.73;;;12.20;99.90;;;;;;4919427;28;20431;-84
2024/03/04 07:38:39;;;;;;;11.70;7.20;;;12.40;99.90;;;;;;4939674;28;20470;-87
2024/03/04 07:41:05;;;;;;;12.30;7.70;;;12.20;99.90;;;;;;4948444;28;20434;-85
2024/03/04 07:43:35;;;;;;;9.90;7.37;;;12.20;99.90;;;;;;4949691;28;20522;-85
2024/03/04 07:46:01;;;;;;;10.30;7.57;;;12.30;99.90;;;;;;4941644;28;20435;-85
2024/03/04 07:48:29;;;;;;;10.87;8.10;;;12.20;99.90;;;;;;4926870;29;20581;-86
2024/03/04 07:50:55;;;;;;;12.97;7.20;;;12.00;99.90;;;;;;4943449;28;20520;-87
2024/03/04 07:53:21;;;;;;;13.80;7.63;;;12.20;99.90;;;;;;4906070;29;21253;-85
2024/03/04 07:55:50;;;;;;;10.97;8.30;;;12.20;99.90;;;;;;4921397;29;20200;-85
2024/03/04 07:58:15;;;;;;;8.60;6.97;;;12.20;99.90;;;;;;4933894;29;21100;-85
2024/03/04 08:00:42;;;;;;;12.27;8.50;;;12.20;99.90;;;;;;4918189;29;21117;-85
2024/03/04 08:03:09;;;;;;;11.00;7.67;;;12.20;99.90;;;;;;4957742;28;20652;-85
2024/03/04 08:05:37;;;;;;;11.57;7.90;;;12.20;99.90;;;;;;4923608;28;20474;-85
2024/03/04 08:08:03;;;;;;;9.57;7.37;;;12.20;99.90;;;;;;4920104;28;20455;-83
2024/03/04 08:10:39;;;;;;;10.57;7.97;;;12.20;99.90;;;;;;4941753;29;20443;-85
2024/03/04 08:13:04;;;;;;;12.93;7.90;;;12.20;99.90;;;;;;4947721;28;20458;-85
2024/03/04 08:15:30;;;;;;;11.20;8.93;;;12.20;99.90;;;;;;4910330;29;20544;-85
2024/03/04 08:17:56;;;;;;;12.40;8.53;;;12.20;99.90;;;;;;4944949;28;20419;-86
2024/03/04 08:20:25;;;;;;;14.00;7.97;;;12.20;99.90;;;;;;4947742;28;20928;-86
2024/03/04 08:22:51;;;;;;;8.80;7.17;;;12.20;99.90;;;;;;4941660;28;20513;-86
2024/03/04 08:25:17;;;;;;;10.33;7.27;;;12.20;99.90;;;;;;4955972;28;20542;-85
2024/03/04 08:27:43;;;;;;;9.37;7.70;;;12.20;99.90;;;;;;4942622;28;21043;-85
2024/03/04 08:30:13;;;;;;;11.57;8.07;;;12.20;99.90;;;;;;4943858;28;20474;-85
2024/03/04 08:32:44;;;;;;;15.87;7.70;;;12.20;99.90;;;;;;4942637;28;20463;-85
2024/03/04 08:35:13;;;;;;;11.33;7.67;;;12.10;99.90;;;;;;4939634;28;20423;-85
2024/03/04 08:37:42;;;;;;;10.93;7.87;;;12.20;99.90;;;;;;4925553;28;20463;-86
2024/03/04 08:40:08;;;;;;;8.33;7.00;;;12.20;99.90;;;;;;4934788;29;20441;-85
2024/03/04 08:42:38;;;;;;;10.00;7.40;;;12.20;99.90;;;;;;4938947;28;20540;-85
2024/03/04 08:45:07;;;;;;;9.93;7.43;;;12.20;99.90;;;;;;4923500;28;20557;-86
2024/03/04 08:47:33;;;;;;;12.13;7.87;;;12.00;99.90;;;;;;4905785;28;21104;-85
2024/03/04 08:50:03;;;;;;;9.80;6.73;;;12.20;99.90;;;;;;4938501;29;20435;-86
2024/03/04 08:52:29;;;;;;;17.40;7.10;;;12.20;99.90;;;;;;4923251;28;20577;-86
2024/03/04 08:54:55;;;;;;;9.80;7.57;;;12.10;99.90;;;;;;4921213;28;20463;-84
2024/03/04 08:57:24;;;;;;;11.47;6.97;;;12.20;99.90;;;;;;4908873;29;20443;-85
2024/03/04 08:59:53;;;;;;;11.43;7.70;;;12.20;99.90;;;;;;4930211;29;20442;-84
2024/03/04 09:02:19;;;;;;;7.80;7.00;;;12.20;99.90;;;;;;4935654;28;20438;-86
2024/03/04 09:04:49;;;;;;;8.70;7.13;;;12.20;99.90;;;;;;4939101;29;20434;-86
2024/03/04 09:07:17;;;;;;;9.70;7.30;;;12.20;99.90;;;;;;4936847;28;20427;-83
2024/03/04 09:12:58;;;;;;;10.20;7.30;;;12.40;99.90;;;;;;4962535;28;21088;-84
2024/03/04 09:15:24;;;;;;;10.80;8.13;;;12.20;99.90;;;;;;4929923;28;20660;-85
2024/03/04 09:17:52;;;;;;;14.13;7.47;;;12.10;99.90;;;;;;4928127;28;20432;-84
2024/03/04 09:20:23;;;;;;;10.00;7.90;;;12.10;99.90;;;;;;4953775;28;20422;-84
2024/03/04 09:22:50;;;;;;;8.47;7.10;;;12.10;99.90;;;;;;4934488;28;20433;-84
2024/03/04 09:25:18;;;;;;;8.90;8.00;;;12.10;99.90;;;;;;4928781;29;20439;-84
2024/03/04 09:27:46;;;;;;;9.23;6.97;;;12.10;99.90;;;;;;4947319;28;20556;-83
2024/03/04 09:30:16;;;;;;;10.90;8.40;;;12.10;99.90;;;;;;4939373;29;21197;-83
2024/03/04 09:32:47;;;;;;;12.47;8.50;;;12.10;99.90;;;;;;4936216;28;21840;-83
2024/03/04 09:35:17;;;;;;;12.03;8.90;;;12.10;99.90;;;;;;4947217;28;20899;-85
2024/03/04 09:37:46;;;;;;;11.70;7.97;;;12.10;99.90;;;;;;4951054;28;20438;-84
2024/03/04 09:40:15;;;;;;;11.60;8.90;;;12.10;99.90;;;;;;4927113;28;20457;-85
2024/03/04 09:42:49;;;;;;;11.50;8.87;;;12.10;99.90;;;;;;4939820;29;20466;-84
2024/03/04 09:45:18;;;;;;;9.67;8.70;;;12.10;99.90;;;;;;4909139;29;20443;-85
2024/03/04 09:47:48;;;;;;;12.70;9.50;;;12.10;99.90;;;;;;4938486;29;20839;-86
2024/03/04 09:50:16;;;;;;;9.50;8.43;;;12.10;99.90;;;;;;4938125;29;20428;-86
2024/03/04 09:53:12;;;;;;;12.90;8.97;;;12.20;99.90;;;;;;4952166;28;20537;-85
2024/03/04 09:55:38;;;;;;;12.17;9.10;;;11.00;99.90;;;;;;4948681;29;20467;-85
2024/03/04 09:58:08;;;;;;;13.83;9.63;;;12.20;99.90;;;;;;4941471;29;20439;-85
2024/03/04 10:00:35;;;;;;;12.60;9.80;;;12.10;99.90;;;;;;4966060;28;20522;-84
2024/03/04 10:03:03;;;;;;;12.10;9.60;;;12.10;99.90;;;;;;4956534;28;20427;-84
2024/03/04 10:05:32;;;;;;;12.73;9.23;;;12.10;99.90;;;;;;4955613;28;20434;-87
2024/03/04 10:07:58;;;;;;;12.63;9.40;;;12.10;99.90;;;;;;4923254;29;20446;-85
2024/03/04 10:10:24;;;;;;;10.57;8.47;;;12.10;99.90;;;;;;4940250;29;20427;-84
2024/03/04 10:12:50;;;;;;;11.10;8.60;;;12.10;99.90;;;;;;4922825;28;20515;-84
2024/03/04 10:15:20;;;;;;;12.20;9.03;;;12.10;99.90;;;;;;4926944;29;20448;-84
2024/03/04 10:17:47;;;;;;;14.60;10.13;;;12.10;99.90;;;;;;4955575;28;20461;-84
2024/03/04 10:20:16;;;;;;;14.77;10.13;;;12.10;99.90;;;;;;4929082;28;20487;-84
2024/03/04 10:22:43;;;;;;;12.23;9.97;;;12.10;99.90;;;;;;4915688;28;20448;-84
2024/03/04 10:25:15;;;;;;;11.53;9.63;;;12.10;99.90;;;;;;4944442;28;20529;-84
2024/03/04 10:27:42;;;;;;;13.80;10.10;;;12.10;99.90;;;;;;4926915;28;20454;-84
2024/03/04 10:30:19;;;;;;;10.83;9.43;;;12.10;99.90;;;;;;4929231;29;20423;-83
2024/03/04 10:32:52;;;;;;;12.03;9.53;;;12.10;99.90;;;;;;4935875;28;20493;-85
2024/03/04 10:35:22;;;;;;;13.13;9.37;;;12.10;99.90;;;;;;4942261;29;20550;-84
2024/03/04 10:37:50;;;;;;;11.60;9.30;;;12.10;99.90;;;;;;4922516;28;20920;-82
2024/03/04 10:40:20;;;;;;;11.47;9.10;;;12.10;99.90;;;;;;4943112;28;20416;-84
2024/03/04 10:42:47;;;;;;;15.17;9.03;;;12.10;99.90;;;;;;4935763;28;20435;-82
2024/03/04 10:45:16;;;;;;;13.33;9.23;;;12.00;99.90;;;;;;4924942;28;20463;-84
2024/03/04 10:47:44;;;;;;;12.80;8.97;;;12.00;99.90;;;;;;4932945;28;20473;-84
2024/03/04 10:50:13;;;;;;;12.97;9.40;;;12.00;99.90;;;;;;4935893;29;20430;-83
2024/03/04 10:52:38;;;;;;;11.57;9.20;;;12.00;99.90;;;;;;4939836;29;20466;-84
2024/03/04 10:55:05;;;;;;;12.97;9.33;;;12.00;99.90;;;;;;4925162;29;20451;-84
2024/03/04 10:57:32;;;;;;;14.60;9.97;;;12.00;99.90;;;;;;4926407;29;20439;-84
2024/03/04 11:00:02;;;;;;;14.30;9.83;;;12.00;99.90;;;;;;4923024;29;20435;-84
2024/03/04 11:02:38;;;;;;;12.83;9.80;;;12.00;99.90;;;;;;4964697;28;20995;-84
2024/03/04 11:05:11;;;;;;;10.23;8.03;;;12.00;99.90;;;;;;4922089;28;20519;-83
2024/03/04 11:07:44;;;;;;;12.20;9.90;;;12.00;99.90;;;;;;4938271;29;20443;-85
2024/03/04 11:10:38;;;;;;;13.60;10.30;;;12.00;99.90;;;;;;4961706;28;20469;-85
2024/03/04 11:13:42;;;;;;;11.60;9.07;;;12.00;99.90;;;;;;4952359;28;20558;-84
2024/03/04 11:16:43;;;;;;;9.17;8.10;;;12.00;99.90;;;;;;4918586;29;20436;-85
2024/03/04 11:19:25;;;;;;;15.43;9.63;;;12.00;99.90;;;;;;4936430;29;20442;-85
2024/03/04 11:21:53;;;;;;;12.10;9.27;;;12.00;99.90;;;;;;4951688;28;20506;-84
2024/03/04 11:24:20;;;;;;;12.37;9.30;;;12.00;99.90;;;;;;4941907;29;20530;-84
2024/03/04 11:26:48;;;;;;;10.73;9.50;;;12.00;99.90;;;;;;4934941;29;21250;-84
2024/03/04 11:29:15;;;;;;;10.17;8.83;;;12.00;99.90;;;;;;4939744;28;20447;-85
2024/03/04 11:31:57;;;;;;;9.50;8.03;;;12.00;99.90;;;;;;4937942;28;20427;-85
2024/03/04 11:34:23;;;;;;;10.53;8.70;;;12.10;99.90;;;;;;4930635;29;20467;-86
2024/03/04 11:36:53;;;;;;;11.67;8.90;;;12.00;99.90;;;;;;4907974;28;20435;-85
2024/03/04 11:39:24;;;;;;;11.47;9.33;;;12.00;99.90;;;;;;4922986;28;20759;-84
2024/03/04 11:41:52;;;;;;;10.67;8.00;;;12.00;99.90;;;;;;4936349;29;20467;-84
2024/03/04 11:44:24;;;;;;;10.20;8.53;;;12.00;99.90;;;;;;4943576;28;20434;-85
2024/03/04 11:46:50;;;;;;;13.23;8.90;;;12.00;99.90;;;;;;4953606;28;20828;-84
2024/03/04 11:49:44;;;;;;;11.00;9.03;;;12.00;99.90;;;;;;4927061;28;20431;-84
2024/03/04 11:52:18;;;;;;;9.37;8.13;;;12.10;99.90;;;;;;4931144;28;20469;-83
2024/03/04 11:54:49;;;;;;;13.13;8.60;;;12.00;99.90;;;;;;4942236;28;20434;-84
2024/03/04 11:57:16;;;;;;;10.43;8.60;;;12.00;99.90;;;;;;4911955;29;20461;-82
2024/03/04 11:59:57;;;;;;;9.93;8.23;;;12.00;99.90;;;;;;4938926;28;20465;-84
2024/03/04 12:02:25;;;;;;;8.40;7.50;;;12.00;99.90;;;;;;4933910;28;20431;-83
2024/03/04 12:04:53;;;;;;;8.60;7.70;;;12.00;99.90;;;;;;4938602;28;20435;-83
2024/03/04 12:07:22;;;;;;;8.90;8.00;;;12.00;99.90;;;;;;4913345;28;20446;-82
2024/03/04 12:09:56;;;;;;;12.20;9.33;;;12.00;99.90;;;;;;4921730;28;20880;-85
2024/03/04 12:12:46;;;;;;;9.97;8.83;;;12.00;99.90;;;;;;4951924;28;20494;-80
2024/03/04 12:15:15;;;;;;;11.90;9.37;;;12.10;99.90;;;;;;4928105;29;20439;-79
2024/03/04 12:17:44;;;;;;;12.50;8.80;;;12.00;99.90;;;;;;4919837;28;21170;-81
2024/03/04 12:20:10;;;;;;;9.70;8.50;;;12.00;99.90;;;;;;4961179;28;20475;-80
2024/03/04 12:22:39;;;;;;;13.77;8.87;;;12.00;99.90;;;;;;4925515;29;20483;-79
2024/03/04 12:25:08;;;;;;;10.47;8.63;;;12.00;99.90;;;;;;4916864;28;20474;-80
2024/03/04 12:27:39;;;;;;;10.90;9.23;;;12.00;99.90;;;;;;4950465;28;20446;-80
2024/03/04 12:30:14;;;;;;;12.40;8.70;;;12.10;99.90;;;;;;4938262;28;20448;-82
2024/03/04 12:32:45;;;;;;;9.17;8.03;;;12.00;99.90;;;;;;4938801;28;20482;-80
2024/03/04 12:35:22;;;;;;;9.60;8.70;;;12.00;99.90;;;;;;4938781;28;20463;-80
2024/03/04 12:37:50;;;;;;;8.40;7.60;;;12.00;99.90;;;;;;4937764;29;20776;-81
2024/03/04 12:40:24;;;;;;;12.57;8.50;;;11.80;99.90;;;;;;4920412;29;20506;-80
2024/03/04 12:42:59;;;;;;;8.73;7.77;;;12.00;99.90;;;;;;4936362;28;20442;-81
2024/03/04 12:45:25;;;;;;;9.03;8.10;;;12.00;99.90;;;;;;4918670;29;20438;-80
2024/03/04 12:47:55;;;;;;;10.37;7.03;;;11.50;99.90;;;;;;4956885;28;20461;-79
2024/03/04 12:50:22;;;;;;;8.77;7.20;;;12.10;99.90;;;;;;4942549;28;20447;-80